Time;durP1;ratioP1;P1;durP2;ratioP2;P2;SDS_P1;SDS_P2;PMS_P1;PMS_P2;Temp;Humidity;BMP_temperature;BMP_pressure;BME280_temperature;BME280_humidity;BME280_pressure;Samples;Min_cycle;Max_cycle;Signal;HPM_P1;HPM_P2
2021/04/10 00:01:07;;;;;;;15.07;10.98;;;12.30;49.60;;;;;;5053901;28;20029;-70
2021/04/10 00:03:33;;;;;;;19.60;10.57;;;12.40;49.50;;;;;;5053636;28;20029;-69
2021/04/10 00:05:58;;;;;;;16.50;10.27;;;12.30;49.60;;;;;;5053744;28;20017;-73
2021/04/10 00:08:24;;;;;;;12.95;9.73;;;12.30;49.60;;;;;;5053538;28;20033;-73
2021/04/10 00:10:50;;;;;;;17.00;10.90;;;12.20;49.80;;;;;;5053426;28;20486;-69
2021/04/10 00:13:15;;;;;;;15.70;10.95;;;12.30;49.60;;;;;;5052178;28;20053;-70
2021/04/10 00:15:41;;;;;;;20.38;11.73;;;12.20;49.50;;;;;;5053399;28;20376;-72
2021/04/10 00:18:07;;;;;;;16.80;12.13;;;12.00;49.50;;;;;;5052334;28;20039;-71
2021/04/10 00:20:32;;;;;;;21.98;12.80;;;11.90;49.50;;;;;;5053423;28;20021;-71
2021/04/10 00:22:58;;;;;;;19.75;12.18;;;12.00;49.70;;;;;;5053266;28;20044;-72
2021/04/10 00:25:24;;;;;;;21.85;13.18;;;12.00;50.10;;;;;;5053344;28;20528;-71
2021/04/10 00:27:49;;;;;;;23.40;13.30;;;12.00;49.40;;;;;;5053802;28;20032;-72
2021/04/10 00:30:16;;;;;;;19.17;12.95;;;12.00;49.60;;;;;;5053208;28;20025;-71
2021/04/10 00:32:43;;;;;;;22.00;13.30;;;12.10;49.70;;;;;;5053385;28;20025;-72
2021/04/10 00:35:09;;;;;;;18.95;12.40;;;12.10;49.40;;;;;;5053135;28;20096;-72
2021/04/10 00:37:36;;;;;;;19.27;12.80;;;12.00;49.70;;;;;;5053076;28;20021;-71
2021/04/10 00:40:05;;;;;;;21.45;14.20;;;12.00;49.30;;;;;;5053145;28;20099;-70
2021/04/10 00:42:30;;;;;;;20.15;13.52;;;12.00;49.00;;;;;;5052880;28;20024;-71
2021/04/10 00:44:56;;;;;;;25.88;13.90;;;11.80;49.20;;;;;;5053264;28;20082;-72
2021/04/10 00:47:22;;;;;;;16.50;12.23;;;11.90;49.60;;;;;;5053340;28;20474;-72
2021/04/10 00:49:48;;;;;;;19.10;12.88;;;11.90;49.50;;;;;;5057285;28;20016;-67
2021/04/10 00:52:16;;;;;;;17.85;11.73;;;11.90;49.60;;;;;;5057037;28;20162;-71
2021/04/10 00:54:42;;;;;;;21.83;12.05;;;11.80;49.20;;;;;;5057386;28;20518;-68
2021/04/10 00:57:08;;;;;;;16.10;12.05;;;11.80;49.50;;;;;;5057012;28;20021;-70
2021/04/10 00:59:34;;;;;;;19.88;12.00;;;11.80;49.10;;;;;;5057298;28;20389;-70
2021/04/10 01:02:02;;;;;;;18.40;11.30;;;11.80;49.10;;;;;;5056731;28;20060;-69
2021/04/10 01:04:28;;;;;;;18.25;10.85;;;11.80;49.00;;;;;;5056887;28;20474;-67
2021/04/10 01:06:54;;;;;;;18.30;10.75;;;11.80;48.90;;;;;;5056889;28;20040;-70
2021/04/10 01:09:19;;;;;;;18.65;10.88;;;11.70;48.70;;;;;;5057009;28;20034;-72
2021/04/10 01:11:57;;;;;;;21.83;10.80;;;11.70;49.20;;;;;;5056578;28;20100;-70
2021/04/10 01:14:27;;;;;;;18.92;10.40;;;11.50;49.50;;;;;;5056672;28;20033;-67
2021/04/10 01:17:01;;;;;;;17.23;9.38;;;11.50;49.20;;;;;;5056844;28;20429;-70
2021/04/10 01:19:54;;;;;;;16.40;9.40;;;11.60;49.10;;;;;;5056573;28;20035;-70
2021/04/10 01:22:31;;;;;;;16.10;9.10;;;11.50;49.40;;;;;;5056691;28;20494;-68
2021/04/10 01:25:09;;;;;;;22.48;9.10;;;11.60;48.50;;;;;;5056804;28;20040;-70
2021/04/10 01:27:41;;;;;;;15.70;9.05;;;11.50;48.70;;;;;;5056549;28;20029;-69
2021/04/10 01:30:17;;;;;;;15.77;8.38;;;11.50;48.80;;;;;;5056466;28;20033;-69
2021/04/10 01:32:48;;;;;;;13.52;8.50;;;11.50;49.10;;;;;;5056380;28;20470;-71
2021/04/10 01:35:15;;;;;;;12.07;7.93;;;11.50;48.40;;;;;;5056514;28;20025;-68
2021/04/10 01:37:53;;;;;;;13.88;8.15;;;11.40;48.30;;;;;;5056222;28;20100;-70
2021/04/10 01:40:22;;;;;;;13.25;7.80;;;11.50;48.90;;;;;;5056129;28;20083;-68
2021/04/10 01:42:50;;;;;;;15.02;7.95;;;11.40;48.40;;;;;;5056561;28;20082;-69
2021/04/10 01:45:18;;;;;;;13.07;7.38;;;11.40;48.90;;;;;;5056283;28;20029;-69
2021/04/10 01:47:46;;;;;;;13.15;7.35;;;11.50;48.40;;;;;;5054838;28;20083;-69
2021/04/10 01:50:12;;;;;;;11.07;6.60;;;11.50;48.00;;;;;;5056106;28;20192;-71
2021/04/10 01:52:40;;;;;;;9.98;7.43;;;11.60;48.00;;;;;;5056261;28;20081;-70
2021/04/10 01:55:09;;;;;;;11.68;6.50;;;11.50;47.90;;;;;;5056166;28;20028;-68
2021/04/10 01:57:36;;;;;;;9.20;6.40;;;11.50;48.20;;;;;;5055866;28;20063;-71
2021/04/10 02:00:04;;;;;;;10.32;5.88;;;11.50;47.80;;;;;;5054828;28;20120;-69
2021/04/10 02:02:31;;;;;;;12.15;6.53;;;11.50;47.90;;;;;;5055731;28;20071;-70
2021/04/10 02:04:57;;;;;;;12.07;6.38;;;11.60;48.10;;;;;;5055917;28;20124;-70
2021/04/10 02:07:24;;;;;;;11.60;6.22;;;11.50;47.70;;;;;;5054332;28;20037;-68
2021/04/10 02:09:51;;;;;;;10.57;6.45;;;11.60;47.90;;;;;;5055952;28;20052;-69
2021/04/10 02:12:21;;;;;;;9.75;5.65;;;11.60;48.00;;;;;;5055617;28;20068;-70
2021/04/10 02:14:48;;;;;;;8.60;5.63;;;11.60;47.80;;;;;;5055823;28;20382;-68
2021/04/10 02:17:17;;;;;;;8.55;5.63;;;11.50;48.00;;;;;;5055716;28;20040;-70
2021/04/10 02:19:44;;;;;;;9.93;4.82;;;11.50;47.70;;;;;;5055587;28;20115;-68
2021/04/10 02:22:11;;;;;;;7.95;4.95;;;11.50;47.90;;;;;;5055420;28;20076;-71
2021/04/10 02:24:37;;;;;;;8.82;4.90;;;11.50;47.80;;;;;;5055595;28;20028;-71
2021/04/10 02:27:04;;;;;;;11.80;5.10;;;11.50;47.90;;;;;;5055407;28;20439;-71
2021/04/10 02:29:31;;;;;;;9.20;4.78;;;11.40;48.00;;;;;;5055491;28;20036;-70
2021/04/10 02:32:15;;;;;;;7.72;4.25;;;11.40;48.10;;;;;;5055318;28;20032;-71
2021/04/10 02:35:02;;;;;;;11.70;4.22;;;11.40;47.90;;;;;;5055820;28;20048;-71
2021/04/10 02:37:30;;;;;;;7.40;4.13;;;11.40;47.90;;;;;;5055260;28;20017;-71
2021/04/10 02:39:57;;;;;;;9.55;4.22;;;11.50;47.90;;;;;;5055334;28;20462;-71
2021/04/10 02:42:27;;;;;;;6.90;4.03;;;11.50;47.70;;;;;;5055152;28;20036;-69
2021/04/10 02:44:54;;;;;;;7.75;4.10;;;11.40;47.80;;;;;;5053661;28;20266;-70
2021/04/10 02:47:24;;;;;;;8.38;3.72;;;11.40;48.00;;;;;;5055128;28;20062;-67
2021/04/10 02:49:56;;;;;;;7.07;3.92;;;11.40;48.30;;;;;;5055155;28;20167;-72
2021/04/10 02:52:31;;;;;;;6.75;3.42;;;11.50;48.20;;;;;;5055070;28;20028;-68
2021/04/10 02:54:59;;;;;;;10.88;3.95;;;11.50;48.40;;;;;;5055544;28;20102;-71
2021/04/10 02:57:27;;;;;;;7.78;4.22;;;11.50;47.90;;;;;;5054640;28;20013;-70
2021/04/10 02:59:58;;;;;;;8.95;4.15;;;11.50;47.90;;;;;;5054698;28;20032;-70
2021/04/10 03:02:25;;;;;;;7.25;3.75;;;11.50;47.90;;;;;;5054763;28;20047;-71
2021/04/10 03:04:52;;;;;;;8.40;4.05;;;11.40;48.30;;;;;;5054748;28;20016;-70
2021/04/10 03:07:19;;;;;;;6.93;4.03;;;11.30;48.30;;;;;;5054771;28;20481;-68
2021/04/10 03:09:46;;;;;;;9.50;3.72;;;11.40;48.40;;;;;;5054666;28;20025;-67
2021/04/10 03:12:14;;;;;;;9.60;3.78;;;11.50;48.20;;;;;;5054163;28;20458;-68
2021/04/10 03:14:40;;;;;;;7.40;3.88;;;11.50;48.20;;;;;;5054586;28;20033;-69
2021/04/10 03:17:08;;;;;;;8.73;4.28;;;11.50;48.20;;;;;;5054525;28;20017;-68
2021/04/10 03:19:36;;;;;;;6.90;3.90;;;11.50;48.20;;;;;;5054388;28;20059;-69
2021/04/10 03:22:01;;;;;;;10.10;3.92;;;11.50;48.30;;;;;;5054233;28;20120;-69
2021/04/10 03:24:27;;;;;;;8.75;3.95;;;11.60;48.40;;;;;;5054179;28;20063;-70
2021/04/10 03:26:54;;;;;;;12.32;4.18;;;11.70;48.10;;;;;;5054316;28;20067;-71
2021/04/10 03:29:19;;;;;;;7.10;3.45;;;11.70;48.00;;;;;;5054371;28;20496;-71
2021/04/10 03:31:47;;;;;;;7.97;4.25;;;11.80;48.00;;;;;;5054108;28;20017;-71
2021/04/10 03:34:13;;;;;;;9.68;4.18;;;11.80;47.70;;;;;;5054226;28;20064;-69
2021/04/10 03:36:40;;;;;;;6.95;3.97;;;11.70;47.80;;;;;;5054241;28;20017;-70
2021/04/10 03:39:05;;;;;;;5.72;3.75;;;11.60;47.80;;;;;;5053834;28;20443;-68
2021/04/10 03:41:31;;;;;;;7.75;3.90;;;11.50;47.60;;;;;;5054090;28;20103;-68
2021/04/10 03:43:57;;;;;;;5.97;3.53;;;11.50;47.80;;;;;;5054058;28;20115;-72
2021/04/10 03:46:22;;;;;;;7.20;3.63;;;11.50;48.10;;;;;;5053948;28;20061;-68
2021/04/10 03:48:48;;;;;;;10.07;4.22;;;11.40;47.70;;;;;;5053964;28;20040;-68
2021/04/10 03:51:14;;;;;;;6.13;3.47;;;11.40;47.80;;;;;;5053675;28;20025;-70
2021/04/10 03:53:40;;;;;;;6.32;4.03;;;11.30;47.80;;;;;;5053767;28;20036;-67
2021/04/10 03:56:06;;;;;;;7.47;3.97;;;11.40;47.80;;;;;;5053911;28;20017;-69
2021/04/10 03:58:31;;;;;;;8.57;4.05;;;11.40;47.60;;;;;;5053721;28;20087;-70
2021/04/10 04:00:57;;;;;;;8.80;4.18;;;11.50;47.70;;;;;;5053781;28;20029;-70
2021/04/10 04:03:23;;;;;;;6.18;4.18;;;11.50;47.50;;;;;;5053695;28;20025;-69
2021/04/10 04:05:48;;;;;;;8.00;3.92;;;11.60;47.00;;;;;;5053651;28;20033;-70
2021/04/10 04:08:14;;;;;;;7.88;4.30;;;11.60;46.80;;;;;;5053587;28;20086;-68
2021/04/10 04:10:40;;;;;;;10.95;4.10;;;11.60;46.70;;;;;;5053240;28;20029;-70
2021/04/10 04:13:05;;;;;;;9.63;4.15;;;11.80;46.80;;;;;;5053412;28;20023;-71
2021/04/10 04:15:31;;;;;;;8.70;4.28;;;11.80;46.60;;;;;;5053631;28;20033;-68
2021/04/10 04:17:57;;;;;;;6.18;3.80;;;11.70;46.50;;;;;;5053364;28;20025;-70
2021/04/10 04:20:23;;;;;;;10.45;4.60;;;11.60;46.40;;;;;;5053380;28;20466;-68
2021/04/10 04:22:49;;;;;;;8.20;4.40;;;11.50;46.40;;;;;;5051172;28;20445;-69
2021/04/10 04:25:14;;;;;;;9.30;4.43;;;11.50;46.40;;;;;;5053268;28;20036;-70
2021/04/10 04:27:40;;;;;;;9.60;4.50;;;11.60;46.40;;;;;;5053296;28;20025;-72
2021/04/10 04:30:07;;;;;;;8.07;4.60;;;11.60;46.20;;;;;;5053479;28;20029;-70
2021/04/10 04:32:33;;;;;;;7.35;4.70;;;11.50;46.20;;;;;;5052111;28;20025;-69
2021/04/10 04:34:59;;;;;;;8.90;4.55;;;11.40;46.30;;;;;;5053300;28;20032;-71
2021/04/10 04:37:25;;;;;;;8.30;5.07;;;11.40;46.30;;;;;;5053251;28;20029;-69
2021/04/10 04:39:51;;;;;;;9.80;5.13;;;11.40;46.10;;;;;;5053106;28;20536;-69
2021/04/10 04:42:17;;;;;;;11.23;4.78;;;11.40;46.00;;;;;;5053079;28;20029;-71
2021/04/10 04:44:44;;;;;;;7.00;4.65;;;11.40;45.90;;;;;;5053105;28;20045;-73
2021/04/10 04:47:10;;;;;;;12.32;4.68;;;11.50;45.80;;;;;;5051919;28;20432;-70
2021/04/10 04:49:35;;;;;;;8.95;4.63;;;11.50;45.60;;;;;;5053183;28;20112;-68
2021/04/10 04:52:01;;;;;;;10.30;5.30;;;11.60;45.70;;;;;;5052895;28;20071;-70
2021/04/10 04:54:27;;;;;;;11.00;5.57;;;11.70;45.50;;;;;;5052924;28;20431;-71
2021/04/10 04:56:53;;;;;;;9.93;5.00;;;11.80;45.20;;;;;;5053133;28;20500;-70
2021/04/10 04:59:18;;;;;;;10.13;4.32;;;11.90;45.20;;;;;;5053123;28;20155;-71
2021/04/10 05:01:44;;;;;;;8.25;4.82;;;12.00;45.00;;;;;;5053073;28;20029;-69
2021/04/10 05:04:11;;;;;;;8.18;4.43;;;12.00;44.90;;;;;;5053078;28;20021;-69
2021/04/10 05:06:37;;;;;;;10.95;4.72;;;12.00;44.70;;;;;;5052692;28;20028;-67
2021/04/10 05:09:04;;;;;;;7.30;4.40;;;12.10;44.70;;;;;;5052713;28;20123;-68
2021/04/10 05:11:29;;;;;;;9.65;4.70;;;12.20;44.70;;;;;;5052587;28;20032;-68
2021/04/10 05:13:55;;;;;;;8.90;4.38;;;12.20;44.50;;;;;;5053411;28;20025;-72
2021/04/10 05:16:21;;;;;;;8.75;4.68;;;12.20;44.40;;;;;;5052824;28;20018;-73
2021/04/10 05:18:46;;;;;;;9.95;4.57;;;12.30;44.50;;;;;;5052871;28;20037;-71
2021/04/10 05:21:12;;;;;;;10.65;4.70;;;12.30;44.40;;;;;;5052844;28;20462;-71
2021/04/10 05:23:39;;;;;;;12.70;5.20;;;12.30;44.50;;;;;;5052798;28;20116;-69
2021/04/10 05:26:05;;;;;;;8.95;4.80;;;12.30;44.50;;;;;;5052776;28;20142;-68
2021/04/10 05:28:31;;;;;;;9.57;4.60;;;12.40;44.30;;;;;;5052608;28;20037;-70
2021/04/10 05:31:01;;;;;;;10.07;5.07;;;12.40;44.40;;;;;;5052661;28;20385;-69
2021/04/10 05:33:30;;;;;;;11.48;5.03;;;12.40;44.60;;;;;;5052536;28;20059;-69
2021/04/10 05:35:56;;;;;;;9.27;4.32;;;12.40;45.00;;;;;;5056303;28;20021;-73
2021/04/10 05:38:23;;;;;;;7.80;4.55;;;12.40;44.60;;;;;;5054996;28;20025;-72
2021/04/10 05:40:49;;;;;;;10.30;4.45;;;12.50;44.40;;;;;;5056215;28;20100;-68
2021/04/10 05:43:14;;;;;;;15.65;4.78;;;12.50;44.30;;;;;;5056380;28;20112;-71
2021/04/10 05:45:40;;;;;;;10.95;5.13;;;12.50;44.40;;;;;;5054851;28;20492;-72
2021/04/10 05:48:06;;;;;;;9.30;5.20;;;12.40;44.20;;;;;;5056144;28;20033;-71
2021/04/10 05:50:32;;;;;;;11.18;5.72;;;12.50;44.50;;;;;;5056501;28;20056;-70
2021/04/10 05:52:58;;;;;;;9.32;4.78;;;12.60;44.30;;;;;;5056460;28;20053;-69
2021/04/10 05:55:24;;;;;;;8.38;4.50;;;12.60;44.40;;;;;;5056176;28;20104;-73
2021/04/10 05:57:49;;;;;;;10.60;5.13;;;12.60;44.20;;;;;;5056302;28;20453;-70
2021/04/10 06:00:16;;;;;;;11.07;5.25;;;12.60;44.00;;;;;;5056057;28;20046;-71
2021/04/10 06:02:41;;;;;;;11.35;4.93;;;12.70;44.10;;;;;;5055972;28;20051;-70
2021/04/10 06:05:07;;;;;;;9.02;5.05;;;12.70;43.90;;;;;;5055771;28;20020;-71
2021/04/10 06:07:33;;;;;;;12.57;5.15;;;12.70;43.90;;;;;;5055883;28;20035;-72
2021/04/10 06:09:59;;;;;;;14.95;5.93;;;12.80;44.10;;;;;;5056150;28;20116;-69
2021/04/10 06:12:24;;;;;;;9.60;5.38;;;12.80;44.10;;;;;;5055633;28;20017;-70
2021/04/10 06:14:50;;;;;;;12.15;5.28;;;12.90;44.00;;;;;;5055876;28;20025;-70
2021/04/10 06:17:16;;;;;;;12.27;5.13;;;13.10;43.90;;;;;;5055674;28;20083;-72
2021/04/10 06:19:42;;;;;;;13.85;5.20;;;13.30;43.90;;;;;;5055751;28;20028;-72
2021/04/10 06:22:08;;;;;;;10.20;5.05;;;13.30;43.50;;;;;;5055105;28;20127;-73
2021/04/10 06:24:34;;;;;;;10.90;5.55;;;13.30;43.40;;;;;;5055469;28;20021;-72
2021/04/10 06:26:59;;;;;;;11.48;6.00;;;13.50;43.50;;;;;;5055524;28;20037;-72
2021/04/10 06:29:25;;;;;;;11.73;5.13;;;13.70;43.40;;;;;;5055908;28;20078;-69
2021/04/10 06:31:51;;;;;;;9.35;5.20;;;14.00;43.30;;;;;;5055383;28;20021;-68
2021/04/10 06:34:16;;;;;;;10.55;4.80;;;14.20;42.60;;;;;;5055348;28;20020;-71
2021/04/10 06:36:42;;;;;;;15.18;5.53;;;14.30;42.40;;;;;;5055304;28;20463;-71
2021/04/10 06:39:08;;;;;;;11.45;5.20;;;14.40;42.00;;;;;;5055485;28;20100;-68
2021/04/10 06:41:34;;;;;;;10.55;6.13;;;14.50;42.00;;;;;;5055257;28;20033;-70
2021/04/10 06:44:01;;;;;;;11.77;5.57;;;14.50;41.70;;;;;;5055154;28;20029;-68
2021/04/10 06:46:31;;;;;;;11.90;4.53;;;14.60;41.50;;;;;;5054587;28;20033;-70
2021/04/10 06:48:58;;;;;;;10.02;4.88;;;14.60;41.40;;;;;;5055036;28;20036;-71
2021/04/10 06:51:24;;;;;;;8.90;5.00;;;14.50;40.80;;;;;;5054863;28;20032;-68
2021/04/10 06:53:52;;;;;;;13.98;4.72;;;14.60;41.20;;;;;;5054925;28;20116;-73
2021/04/10 06:56:23;;;;;;;9.15;5.75;;;14.70;40.80;;;;;;5054899;28;20131;-71
2021/04/10 06:59:12;;;;;;;14.15;5.50;;;14.70;41.10;;;;;;5054859;28;20451;-71
2021/04/10 07:01:40;;;;;;;14.63;5.97;;;14.80;40.10;;;;;;5054880;28;20036;-68
2021/04/10 07:04:07;;;;;;;15.30;5.20;;;14.90;40.80;;;;;;5054514;28;20458;-71
2021/04/10 07:06:33;;;;;;;11.02;4.72;;;15.00;40.70;;;;;;5054508;28;20028;-71
2021/04/10 07:08:59;;;;;;;14.02;4.82;;;15.10;40.70;;;;;;5054305;28;20037;-70
2021/04/10 07:11:25;;;;;;;8.38;3.80;;;15.00;40.40;;;;;;5054186;28;20025;-73
2021/04/10 07:13:50;;;;;;;9.45;4.07;;;14.90;40.60;;;;;;5054405;28;20032;-68
2021/04/10 07:16:16;;;;;;;13.63;4.15;;;15.00;40.80;;;;;;5054539;28;20020;-69
2021/04/10 07:18:42;;;;;;;9.85;4.30;;;15.00;40.80;;;;;;5054151;28;20033;-68
2021/04/10 07:21:12;;;;;;;11.95;4.43;;;15.10;41.00;;;;;;5053971;28;20104;-68
2021/04/10 07:23:50;;;;;;;10.02;4.25;;;15.10;40.60;;;;;;5054146;28;20079;-70
2021/04/10 07:26:17;;;;;;;12.27;4.72;;;15.10;40.90;;;;;;5054173;28;20028;-71
2021/04/10 07:28:43;;;;;;;8.45;4.10;;;15.10;40.90;;;;;;5052559;28;20493;-71
2021/04/10 07:31:14;;;;;;;14.48;4.88;;;15.00;40.70;;;;;;5054057;28;20114;-71
2021/04/10 07:33:56;;;;;;;14.77;4.72;;;14.90;41.20;;;;;;5054160;28;20040;-72
2021/04/10 07:36:22;;;;;;;10.75;4.63;;;15.00;41.40;;;;;;5054063;28;20079;-71
2021/04/10 07:38:56;;;;;;;17.08;4.60;;;15.10;41.30;;;;;;5053912;28;20171;-68
2021/04/10 07:41:22;;;;;;;13.93;5.30;;;15.10;41.30;;;;;;5053599;28;20530;-68
2021/04/10 07:43:48;;;;;;;8.85;5.07;;;15.20;41.30;;;;;;5053906;28;20071;-70
2021/04/10 07:46:20;;;;;;;7.07;3.85;;;15.20;41.20;;;;;;5053803;28;20029;-69
2021/04/10 07:49:09;;;;;;;10.98;3.90;;;15.30;41.70;;;;;;5053835;28;20116;-69
2021/04/10 07:51:56;;;;;;;11.20;3.15;;;15.40;40.80;;;;;;5053376;28;20486;-71
2021/04/10 07:54:26;;;;;;;7.97;3.15;;;15.50;42.20;;;;;;5053167;28;20025;-69
2021/04/10 07:56:56;;;;;;;7.43;3.38;;;15.60;42.60;;;;;;5053195;28;20032;-70
2021/04/10 07:59:22;;;;;;;8.63;3.67;;;15.80;43.10;;;;;;5052959;28;20029;-71
2021/04/10 08:01:48;;;;;;;7.07;3.35;;;15.80;42.70;;;;;;5053901;28;20296;-70
2021/04/10 08:04:16;;;;;;;7.78;2.85;;;15.90;43.20;;;;;;5053455;28;20055;-71
2021/04/10 08:07:02;;;;;;;7.07;3.15;;;16.00;43.40;;;;;;5053650;28;20039;-70
2021/04/10 08:09:38;;;;;;;5.75;2.53;;;16.10;44.20;;;;;;5053289;28;20044;-70
2021/04/10 08:12:10;;;;;;;10.40;2.30;;;16.20;44.10;;;;;;5053031;28;20025;-70
2021/04/10 08:14:44;;;;;;;5.97;1.63;;;16.30;44.10;;;;;;5053316;28;20037;-72
2021/04/10 08:17:11;;;;;;;6.20;2.15;;;16.40;44.70;;;;;;5053337;28;20025;-70
2021/04/10 08:19:38;;;;;;;7.75;1.77;;;16.50;44.80;;;;;;5053279;28;20028;-69
2021/04/10 08:22:05;;;;;;;8.07;1.73;;;16.60;45.00;;;;;;5052940;28;20084;-70
2021/04/10 08:24:38;;;;;;;6.85;1.65;;;16.50;45.10;;;;;;5052841;28;20036;-70
2021/04/10 08:27:11;;;;;;;3.85;1.50;;;16.60;44.50;;;;;;5053080;28;20036;-70
2021/04/10 08:29:38;;;;;;;5.13;1.98;;;16.70;44.50;;;;;;5052997;28;20108;-73
2021/04/10 08:32:06;;;;;;;5.70;1.70;;;16.70;45.30;;;;;;5052838;28;20029;-72
2021/04/10 08:34:32;;;;;;;7.40;1.90;;;16.70;45.10;;;;;;5053137;28;20036;-71
2021/04/10 08:37:03;;;;;;;6.97;1.98;;;16.70;45.40;;;;;;5053018;28;20025;-70
2021/04/10 08:39:35;;;;;;;6.60;1.90;;;16.70;45.50;;;;;;5053056;28;20075;-70
2021/04/10 08:42:02;;;;;;;6.05;2.00;;;16.70;45.60;;;;;;5052708;28;20029;-71
2021/04/10 08:44:31;;;;;;;8.02;1.80;;;16.80;45.80;;;;;;5052896;28;20025;-69
2021/04/10 08:46:57;;;;;;;7.22;1.95;;;16.80;45.90;;;;;;5052771;28;20029;-74
2021/04/10 08:49:26;;;;;;;6.43;2.60;;;16.90;45.70;;;;;;5052846;28;20034;-74
2021/04/10 08:52:03;;;;;;;6.63;2.10;;;17.00;45.80;;;;;;5052858;28;20021;-74
2021/04/10 08:54:32;;;;;;;6.10;1.90;;;17.00;45.90;;;;;;5053171;28;20496;-73
2021/04/10 08:56:58;;;;;;;8.45;2.38;;;17.00;45.90;;;;;;5052663;28;20021;-71
2021/04/10 08:59:24;;;;;;;7.38;2.58;;;17.10;45.80;;;;;;5052785;28;20028;-71
2021/04/10 09:02:10;;;;;;;6.00;2.38;;;17.20;45.90;;;;;;5052633;28;20043;-69
2021/04/10 09:05:07;;;;;;;7.78;2.40;;;17.20;45.90;;;;;;5052825;28;20020;-70
2021/04/10 09:08:00;;;;;;;8.00;2.45;;;17.20;44.80;;;;;;5052843;28;20033;-69
2021/04/10 09:10:27;;;;;;;8.70;2.70;;;17.30;45.30;;;;;;5056135;28;20032;-69
2021/04/10 09:13:04;;;;;;;7.07;2.50;;;17.30;45.50;;;;;;5056663;28;20533;-71
2021/04/10 09:15:30;;;;;;;7.90;2.50;;;17.30;45.80;;;;;;5056370;28;20025;-71
2021/04/10 09:18:00;;;;;;;10.00;2.33;;;17.30;45.70;;;;;;5056476;28;20029;-75
2021/04/10 09:20:45;;;;;;;6.20;2.42;;;17.40;46.00;;;;;;5056153;28;20437;-70
2021/04/10 09:23:26;;;;;;;8.60;2.15;;;17.50;45.70;;;;;;5056053;28;20041;-69
2021/04/10 09:26:12;;;;;;;8.68;2.90;;;17.50;44.70;;;;;;5056525;28;20054;-70
2021/04/10 09:28:55;;;;;;;9.52;2.70;;;17.50;45.10;;;;;;5056684;28;20478;-69
2021/04/10 09:31:40;;;;;;;8.27;2.25;;;17.50;45.50;;;;;;5054824;28;20033;-69
2021/04/10 09:34:26;;;;;;;8.75;2.67;;;17.50;45.10;;;;;;5056123;28;20017;-72
2021/04/10 09:36:52;;;;;;;8.95;3.10;;;17.40;46.00;;;;;;5056103;28;20100;-71
2021/04/10 09:39:52;;;;;;;6.55;2.45;;;17.40;46.10;;;;;;5056049;28;20100;-71
2021/04/10 09:45:09;;;;;;;6.28;2.53;;;17.30;46.20;;;;;;5057039;28;20029;-69
2021/04/10 09:48:00;;;;;;;8.38;2.80;;;17.30;46.60;;;;;;5056535;28;20145;-70
2021/04/10 09:50:28;;;;;;;8.07;2.25;;;17.20;46.00;;;;;;5055977;28;20417;-71
2021/04/10 09:52:55;;;;;;;7.63;2.03;;;17.20;46.90;;;;;;5055934;28;20378;-70
2021/04/10 09:55:22;;;;;;;11.23;2.97;;;17.20;47.10;;;;;;5055843;28;20021;-73
2021/04/10 09:57:55;;;;;;;6.60;2.55;;;17.20;46.90;;;;;;5055829;28;20067;-72
2021/04/10 10:00:27;;;;;;;11.05;3.65;;;17.10;47.10;;;;;;5055361;28;20438;-71
2021/04/10 10:02:54;;;;;;;6.38;2.63;;;17.10;47.10;;;;;;5055689;28;20056;-70
2021/04/10 10:05:21;;;;;;;6.13;2.58;;;17.10;47.30;;;;;;5055725;28;20434;-71
2021/04/10 10:07:47;;;;;;;8.82;2.60;;;17.10;47.10;;;;;;5055403;28;20121;-70
2021/04/10 10:10:13;;;;;;;6.43;2.88;;;17.10;47.20;;;;;;5055407;28;20043;-71
2021/04/10 10:12:39;;;;;;;6.35;2.42;;;17.20;47.10;;;;;;5053745;28;20029;-72
2021/04/10 10:15:22;;;;;;;7.00;2.72;;;17.20;47.30;;;;;;5055215;28;20021;-72
2021/04/10 10:17:48;;;;;;;15.40;3.33;;;17.10;47.50;;;;;;5055196;28;20100;-71
2021/04/10 10:20:15;;;;;;;6.30;2.70;;;17.10;47.30;;;;;;5054549;28;20105;-71
2021/04/10 10:22:42;;;;;;;8.40;2.60;;;17.10;47.40;;;;;;5054667;28;20092;-71
2021/04/10 10:25:09;;;;;;;8.68;2.50;;;17.10;47.70;;;;;;5054905;28;20029;-71
2021/04/10 10:27:36;;;;;;;11.50;2.70;;;17.10;47.60;;;;;;5055116;28;20025;-72
2021/04/10 10:30:15;;;;;;;10.38;2.50;;;17.10;47.80;;;;;;5055005;28;20100;-71
2021/04/10 10:32:46;;;;;;;11.30;3.08;;;17.20;47.50;;;;;;5054840;28;20021;-69
2021/04/10 10:35:13;;;;;;;8.60;2.70;;;17.30;47.40;;;;;;5053526;28;20029;-72
2021/04/10 10:37:39;;;;;;;9.35;2.83;;;17.40;47.00;;;;;;5054713;28;20029;-74
2021/04/10 10:40:07;;;;;;;11.25;3.08;;;17.50;47.10;;;;;;5055210;28;20025;-71
2021/04/10 10:42:33;;;;;;;10.85;3.97;;;17.50;46.90;;;;;;5053669;28;20018;-71
2021/04/10 10:44:58;;;;;;;8.40;2.95;;;17.50;47.00;;;;;;5054649;28;20102;-68
2021/04/10 10:47:25;;;;;;;10.88;2.50;;;17.40;47.20;;;;;;5054763;28;20029;-72
2021/04/10 10:49:52;;;;;;;8.27;2.88;;;17.40;47.20;;;;;;5054907;28;20107;-71
2021/04/10 10:52:18;;;;;;;7.57;3.25;;;17.40;47.30;;;;;;5054851;28;20028;-68
2021/04/10 10:54:46;;;;;;;8.70;3.00;;;17.40;47.30;;;;;;5054758;28;20104;-68
2021/04/10 10:57:16;;;;;;;7.32;3.78;;;17.40;47.40;;;;;;5054723;28;20029;-68
2021/04/10 10:59:43;;;;;;;10.45;3.83;;;17.30;47.50;;;;;;5054666;28;20021;-69
2021/04/10 11:02:10;;;;;;;10.75;3.78;;;17.30;47.70;;;;;;5054567;28;20029;-69
2021/04/10 11:04:38;;;;;;;10.13;5.43;;;17.30;48.10;;;;;;5054904;28;20029;-69
2021/04/10 11:07:06;;;;;;;11.18;3.90;;;17.20;48.10;;;;;;5054628;28;20083;-69
2021/04/10 11:09:38;;;;;;;11.05;5.55;;;17.20;48.50;;;;;;5054469;28;20072;-69
2021/04/10 11:12:11;;;;;;;8.23;4.72;;;17.10;48.80;;;;;;5054522;28;20020;-68
2021/04/10 11:14:42;;;;;;;9.13;3.53;;;17.10;48.90;;;;;;5053080;28;20025;-68
2021/04/10 11:17:09;;;;;;;11.55;3.50;;;17.10;49.10;;;;;;5054556;28;20025;-69
2021/04/10 11:19:43;;;;;;;8.70;3.72;;;17.00;49.10;;;;;;5054330;28;20025;-67
2021/04/10 11:22:17;;;;;;;9.82;3.05;;;17.00;49.80;;;;;;5053854;28;20053;-69
2021/04/10 11:24:48;;;;;;;12.52;5.18;;;16.90;49.90;;;;;;5054146;28;20033;-68
2021/04/10 11:27:14;;;;;;;9.05;4.15;;;16.90;50.10;;;;;;5054227;28;20355;-70
2021/04/10 11:30:04;;;;;;;8.75;3.70;;;16.90;50.40;;;;;;5054544;28;20051;-68
2021/04/10 11:32:33;;;;;;;10.43;3.20;;;16.90;50.30;;;;;;5053799;28;20028;-69
2021/04/10 11:35:02;;;;;;;12.88;3.47;;;17.00;50.90;;;;;;5053986;28;20060;-68
2021/04/10 11:37:28;;;;;;;8.63;4.07;;;17.00;50.90;;;;;;5053938;28;20021;-70
2021/04/10 11:40:00;;;;;;;10.00;4.60;;;17.00;51.00;;;;;;5053817;28;20035;-68
2021/04/10 11:42:30;;;;;;;10.70;3.75;;;17.10;51.30;;;;;;5054075;28;20179;-69
2021/04/10 11:44:58;;;;;;;7.35;3.03;;;17.10;51.30;;;;;;5053947;28;20079;-69
2021/04/10 11:47:33;;;;;;;10.43;6.40;;;17.20;51.50;;;;;;5053680;28;20049;-68
2021/04/10 11:50:25;;;;;;;12.52;4.25;;;17.20;51.80;;;;;;5053707;28;20033;-71
2021/04/10 11:52:51;;;;;;;9.40;4.72;;;17.30;51.70;;;;;;5050921;28;20029;-70
2021/04/10 11:55:18;;;;;;;17.92;5.18;;;17.30;52.30;;;;;;5053869;28;20062;-70
2021/04/10 11:57:54;;;;;;;11.18;4.18;;;17.30;52.30;;;;;;5053915;28;20036;-69
2021/04/10 12:00:25;;;;;;;9.50;4.32;;;17.30;52.30;;;;;;5054012;28;20025;-67
2021/04/10 12:02:51;;;;;;;10.65;4.15;;;17.30;52.80;;;;;;5053626;28;20099;-71
2021/04/10 12:05:36;;;;;;;9.55;4.53;;;17.30;52.70;;;;;;5053436;28;20481;-69
2021/04/10 12:08:25;;;;;;;10.50;6.05;;;17.30;53.20;;;;;;5052006;28;20029;-69
2021/04/10 12:10:54;;;;;;;9.77;4.03;;;17.30;53.30;;;;;;5053348;28;20573;-68
2021/04/10 12:13:21;;;;;;;9.50;3.30;;;17.30;53.20;;;;;;5052308;28;20490;-70
2021/04/10 12:15:53;;;;;;;8.98;4.00;;;17.30;53.20;;;;;;5053249;28;20025;-71
2021/04/10 12:18:20;;;;;;;9.60;4.38;;;17.30;53.10;;;;;;5053706;28;20036;-68
2021/04/10 12:20:47;;;;;;;8.98;3.58;;;17.20;53.00;;;;;;5053518;28;20028;-69
2021/04/10 12:23:13;;;;;;;6.38;3.25;;;17.20;53.20;;;;;;5053219;28;20455;-69
2021/04/10 12:25:39;;;;;;;7.13;2.90;;;17.10;53.40;;;;;;5053234;28;20017;-71
2021/04/10 12:28:06;;;;;;;6.03;2.58;;;17.00;53.40;;;;;;5053323;28;20400;-70
2021/04/10 12:30:32;;;;;;;6.90;2.45;;;17.00;54.00;;;;;;5053215;28;20143;-71
2021/04/10 12:32:58;;;;;;;9.20;3.03;;;16.90;53.70;;;;;;5053349;28;20478;-71
2021/04/10 12:35:24;;;;;;;6.68;3.00;;;16.90;53.80;;;;;;5053146;28;20025;-70
2021/04/10 12:37:50;;;;;;;7.88;2.97;;;16.90;53.60;;;;;;5053101;28;20017;-68
2021/04/10 12:40:16;;;;;;;7.68;3.00;;;16.80;53.50;;;;;;5052844;28;20035;-69
2021/04/10 12:42:42;;;;;;;7.15;2.90;;;16.90;53.80;;;;;;5052861;28;20478;-71
2021/04/10 12:45:09;;;;;;;4.85;2.58;;;16.80;53.40;;;;;;5052504;28;20040;-69
2021/04/10 12:47:35;;;;;;;10.48;4.70;;;16.90;53.20;;;;;;5052677;28;20047;-69
2021/04/10 12:50:02;;;;;;;11.07;2.92;;;16.90;53.00;;;;;;5052812;28;20029;-68
2021/04/10 12:52:29;;;;;;;5.70;2.65;;;17.00;52.90;;;;;;5053131;28;20014;-69